sensor_id;sensor_type;location;lat;lon;timestamp;temperature;humidity
51567;DHT22;37657;53.182;5.638;2023-04-03T00:01:09;3.10;99.90
51567;DHT22;37657;53.182;5.638;2023-04-03T00:03:34;3.10;99.90
51567;DHT22;37657;53.182;5.638;2023-04-03T00:06:01;3.00;99.90
51567;DHT22;37657;53.182;5.638;2023-04-03T00:08:26;3.00;99.90
51567;DHT22;37657;53.182;5.638;2023-04-03T00:10:52;2.90;99.90
51567;DHT22;37657;53.182;5.638;2023-04-03T00:13:17;2.90;99.90
51567;DHT22;37657;53.182;5.638;2023-04-03T00:15:43;2.80;99.90
51567;DHT22;37657;53.182;5.638;2023-04-03T00:18:09;2.80;99.90
51567;DHT22;37657;53.182;5.638;2023-04-03T00:20:35;2.70;99.90
51567;DHT22;37657;53.182;5.638;2023-04-03T00:23:01;2.70;99.90
51567;DHT22;37657;53.182;5.638;2023-04-03T00:25:27;2.60;99.90
51567;DHT22;37657;53.182;5.638;2023-04-03T00:27:53;2.60;99.90
51567;DHT22;37657;53.182;5.638;2023-04-03T00:30:21;2.50;99.90
51567;DHT22;37657;53.182;5.638;2023-04-03T00:32:51;2.60;99.90
51567;DHT22;37657;53.182;5.638;2023-04-03T00:35:17;2.60;99.90
51567;DHT22;37657;53.182;5.638;2023-04-03T00:37:43;2.60;99.90
51567;DHT22;37657;53.182;5.638;2023-04-03T00:40:10;2.60;99.90
51567;DHT22;37657;53.182;5.638;2023-04-03T00:42:37;2.60;99.90
51567;DHT22;37657;53.182;5.638;2023-04-03T00:47:30;2.60;99.90
51567;DHT22;37657;53.182;5.638;2023-04-03T00:49:57;2.60;99.90
51567;DHT22;37657;53.182;5.638;2023-04-03T00:52:26;2.60;99.90
51567;DHT22;37657;53.182;5.638;2023-04-03T00:54:54;2.60;99.90
51567;DHT22;37657;53.182;5.638;2023-04-03T00:57:22;2.60;99.90
51567;DHT22;37657;53.182;5.638;2023-04-03T00:59:51;2.60;99.90
51567;DHT22;37657;53.182;5.638;2023-04-03T01:02:20;2.60;99.90
51567;DHT22;37657;53.182;5.638;2023-04-03T01:04:46;2.50;99.90
51567;DHT22;37657;53.182;5.638;2023-04-03T01:07:19;2.50;99.90
51567;DHT22;37657;53.182;5.638;2023-04-03T01:09:48;2.50;99.90
51567;DHT22;37657;53.182;5.638;2023-04-03T01:12:30;2.50;99.90
51567;DHT22;37657;53.182;5.638;2023-04-03T01:15:05;2.40;99.90
51567;DHT22;37657;53.182;5.638;2023-04-03T01:20:36;2.40;99.90
51567;DHT22;37657;53.182;5.638;2023-04-03T01:25:51;2.20;99.90
51567;DHT22;37657;53.182;5.638;2023-04-03T01:28:27;2.10;99.90
51567;DHT22;37657;53.182;5.638;2023-04-03T01:33:46;2.00;99.90
51567;DHT22;37657;53.182;5.638;2023-04-03T01:36:21;1.90;99.90
51567;DHT22;37657;53.182;5.638;2023-04-03T01:38:48;1.90;99.90
51567;DHT22;37657;53.182;5.638;2023-04-03T01:41:13;1.90;99.90
51567;DHT22;37657;53.182;5.638;2023-04-03T01:43:39;1.90;99.90
51567;DHT22;37657;53.182;5.638;2023-04-03T01:46:05;1.90;99.90
51567;DHT22;37657;53.182;5.638;2023-04-03T01:48:30;1.80;99.90
51567;DHT22;37657;53.182;5.638;2023-04-03T01:50:56;1.80;99.90
51567;DHT22;37657;53.182;5.638;2023-04-03T01:53:21;1.80;99.90
51567;DHT22;37657;53.182;5.638;2023-04-03T01:55:48;1.70;99.90
51567;DHT22;37657;53.182;5.638;2023-04-03T01:58:13;1.70;99.90
51567;DHT22;37657;53.182;5.638;2023-04-03T02:00:39;1.70;99.90
51567;DHT22;37657;53.182;5.638;2023-04-03T02:03:05;1.60;99.90
51567;DHT22;37657;53.182;5.638;2023-04-03T02:05:31;1.60;99.90
51567;DHT22;37657;53.182;5.638;2023-04-03T02:07:57;1.60;99.90
51567;DHT22;37657;53.182;5.638;2023-04-03T02:10:23;1.60;99.90
51567;DHT22;37657;53.182;5.638;2023-04-03T02:12:48;1.60;99.90
51567;DHT22;37657;53.182;5.638;2023-04-03T02:15:14;1.60;99.90
51567;DHT22;37657;53.182;5.638;2023-04-03T02:17:39;1.60;99.90
51567;DHT22;37657;53.182;5.638;2023-04-03T02:20:05;1.70;99.90
51567;DHT22;37657;53.182;5.638;2023-04-03T02:22:31;1.60;99.90
51567;DHT22;37657;53.182;5.638;2023-04-03T02:24:56;1.70;99.90
51567;DHT22;37657;53.182;5.638;2023-04-03T02:27:22;1.60;99.90
51567;DHT22;37657;53.182;5.638;2023-04-03T02:29:47;1.60;99.90
51567;DHT22;37657;53.182;5.638;2023-04-03T02:32:13;1.60;99.90
51567;DHT22;37657;53.182;5.638;2023-04-03T02:34:39;1.60;99.90
51567;DHT22;37657;53.182;5.638;2023-04-03T02:37:04;1.50;99.90
51567;DHT22;37657;53.182;5.638;2023-04-03T02:39:30;1.60;99.90
51567;DHT22;37657;53.182;5.638;2023-04-03T02:41:56;1.50;99.90
51567;DHT22;37657;53.182;5.638;2023-04-03T02:44:21;1.60;99.90
51567;DHT22;37657;53.182;5.638;2023-04-03T02:46:49;1.50;99.90
51567;DHT22;37657;53.182;5.638;2023-04-03T02:49:14;1.50;99.90
51567;DHT22;37657;53.182;5.638;2023-04-03T02:51:41;1.40;99.90
51567;DHT22;37657;53.182;5.638;2023-04-03T02:54:06;1.40;99.90
51567;DHT22;37657;53.182;5.638;2023-04-03T02:56:32;1.40;99.90
51567;DHT22;37657;53.182;5.638;2023-04-03T02:58:58;1.40;99.90
51567;DHT22;37657;53.182;5.638;2023-04-03T03:01:24;1.50;99.90
51567;DHT22;37657;53.182;5.638;2023-04-03T03:03:49;1.40;99.90
51567;DHT22;37657;53.182;5.638;2023-04-03T03:06:17;1.40;99.90
51567;DHT22;37657;53.182;5.638;2023-04-03T03:08:43;1.40;99.90
51567;DHT22;37657;53.182;5.638;2023-04-03T03:11:09;1.40;99.90
51567;DHT22;37657;53.182;5.638;2023-04-03T03:13:35;1.30;99.90
51567;DHT22;37657;53.182;5.638;2023-04-03T03:16:01;1.30;99.90
51567;DHT22;37657;53.182;5.638;2023-04-03T03:18:27;1.30;99.90
51567;DHT22;37657;53.182;5.638;2023-04-03T03:20:54;1.30;99.90
51567;DHT22;37657;53.182;5.638;2023-04-03T03:23:22;1.30;99.90
51567;DHT22;37657;53.182;5.638;2023-04-03T03:25:47;1.30;99.90
51567;DHT22;37657;53.182;5.638;2023-04-03T03:28:13;1.20;99.90
51567;DHT22;37657;53.182;5.638;2023-04-03T03:30:39;1.20;99.90
51567;DHT22;37657;53.182;5.638;2023-04-03T03:33:04;1.10;99.90
51567;DHT22;37657;53.182;5.638;2023-04-03T03:35:30;1.00;99.90
51567;DHT22;37657;53.182;5.638;2023-04-03T03:37:55;0.90;99.90
51567;DHT22;37657;53.182;5.638;2023-04-03T03:40:21;0.80;99.90
51567;DHT22;37657;53.182;5.638;2023-04-03T03:42:47;0.80;99.90
51567;DHT22;37657;53.182;5.638;2023-04-03T03:45:12;0.70;99.90
51567;DHT22;37657;53.182;5.638;2023-04-03T03:47:38;0.70;99.90
51567;DHT22;37657;53.182;5.638;2023-04-03T03:50:03;0.70;99.90
51567;DHT22;37657;53.182;5.638;2023-04-03T03:52:29;0.70;99.90
51567;DHT22;37657;53.182;5.638;2023-04-03T03:54:55;0.70;99.90
51567;DHT22;37657;53.182;5.638;2023-04-03T03:57:21;0.70;99.90
51567;DHT22;37657;53.182;5.638;2023-04-03T03:59:47;0.70;99.90
51567;DHT22;37657;53.182;5.638;2023-04-03T04:02:14;0.70;99.90
51567;DHT22;37657;53.182;5.638;2023-04-03T04:04:39;0.70;99.90
51567;DHT22;37657;53.182;5.638;2023-04-03T04:07:05;0.70;99.90
51567;DHT22;37657;53.182;5.638;2023-04-03T04:09:31;0.70;99.90
51567;DHT22;37657;53.182;5.638;2023-04-03T04:11:56;0.70;99.90
51567;DHT22;37657;53.182;5.638;2023-04-03T04:14:22;0.70;99.90
51567;DHT22;37657;53.182;5.638;2023-04-03T04:16:47;0.80;99.90
51567;DHT22;37657;53.182;5.638;2023-04-03T04:19:13;0.70;99.90
51567;DHT22;37657;53.182;5.638;2023-04-03T04:21:39;0.70;99.90
51567;DHT22;37657;53.182;5.638;2023-04-03T04:24:05;0.60;99.90
51567;DHT22;37657;53.182;5.638;2023-04-03T04:26:31;0.60;99.90
51567;DHT22;37657;53.182;5.638;2023-04-03T04:28:56;0.60;99.90
51567;DHT22;37657;53.182;5.638;2023-04-03T04:31:22;0.60;99.90
51567;DHT22;37657;53.182;5.638;2023-04-03T04:33:47;0.50;99.90
51567;DHT22;37657;53.182;5.638;2023-04-03T04:36:13;0.50;99.90
51567;DHT22;37657;53.182;5.638;2023-04-03T04:38:40;0.50;99.90
51567;DHT22;37657;53.182;5.638;2023-04-03T04:41:06;0.50;99.90
51567;DHT22;37657;53.182;5.638;2023-04-03T04:43:32;0.60;99.90
51567;DHT22;37657;53.182;5.638;2023-04-03T04:46:16;0.60;99.90
51567;DHT22;37657;53.182;5.638;2023-04-03T04:48:41;0.70;99.90
51567;DHT22;37657;53.182;5.638;2023-04-03T04:51:07;0.70;99.90
51567;DHT22;37657;53.182;5.638;2023-04-03T04:53:33;0.70;99.90
51567;DHT22;37657;53.182;5.638;2023-04-03T04:55:59;0.70;99.90
51567;DHT22;37657;53.182;5.638;2023-04-03T04:58:24;0.60;99.90
51567;DHT22;37657;53.182;5.638;2023-04-03T05:01:04;0.60;99.90
51567;DHT22;37657;53.182;5.638;2023-04-03T05:03:31;0.60;99.90
51567;DHT22;37657;53.182;5.638;2023-04-03T05:05:57;0.60;99.90
51567;DHT22;37657;53.182;5.638;2023-04-03T05:08:22;0.60;99.90
51567;DHT22;37657;53.182;5.638;2023-04-03T05:10:48;0.50;99.90
51567;DHT22;37657;53.182;5.638;2023-04-03T05:13:14;0.50;99.90
51567;DHT22;37657;53.182;5.638;2023-04-03T05:15:39;0.40;99.90
51567;DHT22;37657;53.182;5.638;2023-04-03T05:18:05;0.40;99.90
51567;DHT22;37657;53.182;5.638;2023-04-03T05:20:31;0.50;99.90
51567;DHT22;37657;53.182;5.638;2023-04-03T05:22:57;0.40;99.90
51567;DHT22;37657;53.182;5.638;2023-04-03T05:25:23;0.40;99.90
51567;DHT22;37657;53.182;5.638;2023-04-03T05:27:49;0.40;99.90
51567;DHT22;37657;53.182;5.638;2023-04-03T05:30:14;0.50;99.90
51567;DHT22;37657;53.182;5.638;2023-04-03T05:32:40;0.60;99.90
51567;DHT22;37657;53.182;5.638;2023-04-03T05:35:06;0.70;99.90
51567;DHT22;37657;53.182;5.638;2023-04-03T05:37:33;0.70;99.90
51567;DHT22;37657;53.182;5.638;2023-04-03T05:39:58;0.70;99.90
51567;DHT22;37657;53.182;5.638;2023-04-03T05:42:24;0.80;99.90
51567;DHT22;37657;53.182;5.638;2023-04-03T05:44:49;0.80;99.90
51567;DHT22;37657;53.182;5.638;2023-04-03T05:47:16;0.90;99.90
51567;DHT22;37657;53.182;5.638;2023-04-03T05:49:41;1.10;99.90
51567;DHT22;37657;53.182;5.638;2023-04-03T05:52:20;1.20;99.90
51567;DHT22;37657;53.182;5.638;2023-04-03T05:54:46;1.30;99.90
51567;DHT22;37657;53.182;5.638;2023-04-03T05:57:14;1.40;99.90
51567;DHT22;37657;53.182;5.638;2023-04-03T05:59:39;1.60;99.90
51567;DHT22;37657;53.182;5.638;2023-04-03T06:02:06;1.80;99.90
51567;DHT22;37657;53.182;5.638;2023-04-03T06:04:31;1.90;99.90
51567;DHT22;37657;53.182;5.638;2023-04-03T06:06:57;2.20;99.90
51567;DHT22;37657;53.182;5.638;2023-04-03T06:09:26;2.50;99.90
51567;DHT22;37657;53.182;5.638;2023-04-03T06:11:52;3.00;99.90
51567;DHT22;37657;53.182;5.638;2023-04-03T06:14:18;3.20;99.90
51567;DHT22;37657;53.182;5.638;2023-04-03T06:16:44;3.40;99.90
51567;DHT22;37657;53.182;5.638;2023-04-03T06:19:11;3.60;99.90
51567;DHT22;37657;53.182;5.638;2023-04-03T06:21:37;3.80;99.90
51567;DHT22;37657;53.182;5.638;2023-04-03T06:24:03;4.00;99.90
51567;DHT22;37657;53.182;5.638;2023-04-03T06:26:29;4.10;99.90
51567;DHT22;37657;53.182;5.638;2023-04-03T06:28:55;4.20;99.90
51567;DHT22;37657;53.182;5.638;2023-04-03T06:31:21;4.10;99.90
51567;DHT22;37657;53.182;5.638;2023-04-03T06:33:47;3.90;99.90
51567;DHT22;37657;53.182;5.638;2023-04-03T06:36:12;3.80;99.90
51567;DHT22;37657;53.182;5.638;2023-04-03T06:38:38;3.80;99.90
51567;DHT22;37657;53.182;5.638;2023-04-03T06:41:04;3.80;99.90
51567;DHT22;37657;53.182;5.638;2023-04-03T06:43:30;3.90;99.90
51567;DHT22;37657;53.182;5.638;2023-04-03T06:45:56;3.90;99.90
51567;DHT22;37657;53.182;5.638;2023-04-03T06:48:22;4.00;99.90
51567;DHT22;37657;53.182;5.638;2023-04-03T06:50:48;4.00;99.90
51567;DHT22;37657;53.182;5.638;2023-04-03T06:53:14;4.00;99.90
51567;DHT22;37657;53.182;5.638;2023-04-03T06:55:40;4.10;99.90
51567;DHT22;37657;53.182;5.638;2023-04-03T06:58:06;4.10;99.90
51567;DHT22;37657;53.182;5.638;2023-04-03T07:00:32;4.10;99.90
51567;DHT22;37657;53.182;5.638;2023-04-03T07:02:58;4.20;99.90
51567;DHT22;37657;53.182;5.638;2023-04-03T07:05:26;4.20;99.90
51567;DHT22;37657;53.182;5.638;2023-04-03T07:07:52;4.30;99.90
51567;DHT22;37657;53.182;5.638;2023-04-03T07:10:18;4.30;99.90
51567;DHT22;37657;53.182;5.638;2023-04-03T07:12:44;4.40;99.90
51567;DHT22;37657;53.182;5.638;2023-04-03T07:15:10;4.40;99.90
51567;DHT22;37657;53.182;5.638;2023-04-03T07:17:37;4.50;99.90
51567;DHT22;37657;53.182;5.638;2023-04-03T07:20:03;4.60;99.90
51567;DHT22;37657;53.182;5.638;2023-04-03T07:22:29;4.60;99.90
51567;DHT22;37657;53.182;5.638;2023-04-03T07:24:55;4.70;99.90
51567;DHT22;37657;53.182;5.638;2023-04-03T07:27:20;4.80;99.90
51567;DHT22;37657;53.182;5.638;2023-04-03T07:29:46;4.90;99.90
51567;DHT22;37657;53.182;5.638;2023-04-03T07:32:14;4.90;99.90
51567;DHT22;37657;53.182;5.638;2023-04-03T07:34:40;4.90;99.90
51567;DHT22;37657;53.182;5.638;2023-04-03T07:37:05;5.10;99.90
51567;DHT22;37657;53.182;5.638;2023-04-03T07:39:32;5.10;99.90
51567;DHT22;37657;53.182;5.638;2023-04-03T07:41:57;5.10;99.90
51567;DHT22;37657;53.182;5.638;2023-04-03T07:44:23;5.20;99.90
51567;DHT22;37657;53.182;5.638;2023-04-03T07:46:49;5.30;99.90
51567;DHT22;37657;53.182;5.638;2023-04-03T07:49:17;5.40;99.90
51567;DHT22;37657;53.182;5.638;2023-04-03T07:51:44;5.40;99.90
51567;DHT22;37657;53.182;5.638;2023-04-03T07:54:10;5.50;99.90
51567;DHT22;37657;53.182;5.638;2023-04-03T07:56:36;5.50;99.90
51567;DHT22;37657;53.182;5.638;2023-04-03T07:59:01;5.60;99.90
51567;DHT22;37657;53.182;5.638;2023-04-03T08:01:27;5.60;99.90
51567;DHT22;37657;53.182;5.638;2023-04-03T08:03:53;5.70;99.90
51567;DHT22;37657;53.182;5.638;2023-04-03T08:06:18;5.80;99.90
51567;DHT22;37657;53.182;5.638;2023-04-03T08:08:44;5.90;99.90
51567;DHT22;37657;53.182;5.638;2023-04-03T08:11:11;5.90;99.90
51567;DHT22;37657;53.182;5.638;2023-04-03T08:13:37;6.00;99.90
51567;DHT22;37657;53.182;5.638;2023-04-03T08:16:20;6.10;99.90
51567;DHT22;37657;53.182;5.638;2023-04-03T08:18:46;6.20;99.90
51567;DHT22;37657;53.182;5.638;2023-04-03T08:21:12;6.20;99.90
51567;DHT22;37657;53.182;5.638;2023-04-03T08:23:39;6.30;99.90
51567;DHT22;37657;53.182;5.638;2023-04-03T08:26:14;6.40;99.90
51567;DHT22;37657;53.182;5.638;2023-04-03T08:28:40;6.50;99.90
51567;DHT22;37657;53.182;5.638;2023-04-03T08:31:09;6.60;99.90
51567;DHT22;37657;53.182;5.638;2023-04-03T08:33:36;6.60;99.90
51567;DHT22;37657;53.182;5.638;2023-04-03T08:36:04;6.70;99.90
51567;DHT22;37657;53.182;5.638;2023-04-03T08:38:30;6.80;99.90
51567;DHT22;37657;53.182;5.638;2023-04-03T08:41:43;6.80;99.90
51567;DHT22;37657;53.182;5.638;2023-04-03T08:44:12;6.90;99.90
51567;DHT22;37657;53.182;5.638;2023-04-03T08:46:52;6.90;99.90
51567;DHT22;37657;53.182;5.638;2023-04-03T08:49:47;7.10;99.90
51567;DHT22;37657;53.182;5.638;2023-04-03T08:52:19;7.10;99.90
51567;DHT22;37657;53.182;5.638;2023-04-03T08:54:55;7.20;99.90
51567;DHT22;37657;53.182;5.638;2023-04-03T08:57:29;7.20;99.90
51567;DHT22;37657;53.182;5.638;2023-04-03T08:59:57;7.20;99.90
51567;DHT22;37657;53.182;5.638;2023-04-03T09:02:34;7.30;99.90
51567;DHT22;37657;53.182;5.638;2023-04-03T09:05:05;7.50;99.90
51567;DHT22;37657;53.182;5.638;2023-04-03T09:07:45;7.40;99.90
51567;DHT22;37657;53.182;5.638;2023-04-03T09:10:12;7.50;99.90
51567;DHT22;37657;53.182;5.638;2023-04-03T09:12:42;7.60;99.90
51567;DHT22;37657;53.182;5.638;2023-04-03T09:15:20;7.70;99.90
51567;DHT22;37657;53.182;5.638;2023-04-03T09:18:15;7.70;99.90
51567;DHT22;37657;53.182;5.638;2023-04-03T09:23:51;7.80;99.90
51567;DHT22;37657;53.182;5.638;2023-04-03T09:26:33;7.90;99.90
51567;DHT22;37657;53.182;5.638;2023-04-03T09:29:04;7.80;99.90
51567;DHT22;37657;53.182;5.638;2023-04-03T09:31:36;8.00;99.90
51567;DHT22;37657;53.182;5.638;2023-04-03T09:34:07;7.90;99.90
51567;DHT22;37657;53.182;5.638;2023-04-03T09:39:08;8.00;99.90
51567;DHT22;37657;53.182;5.638;2023-04-03T09:41:35;8.10;99.90
51567;DHT22;37657;53.182;5.638;2023-04-03T09:44:00;8.20;99.90
51567;DHT22;37657;53.182;5.638;2023-04-03T09:46:34;8.20;99.90
51567;DHT22;37657;53.182;5.638;2023-04-03T09:49:04;8.30;99.90
51567;DHT22;37657;53.182;5.638;2023-04-03T09:51:31;8.30;99.90
51567;DHT22;37657;53.182;5.638;2023-04-03T09:53:57;8.30;99.90
51567;DHT22;37657;53.182;5.638;2023-04-03T09:56:24;8.40;99.90
51567;DHT22;37657;53.182;5.638;2023-04-03T09:59:06;8.40;99.90
51567;DHT22;37657;53.182;5.638;2023-04-03T10:01:37;8.50;99.90
51567;DHT22;37657;53.182;5.638;2023-04-03T10:04:18;8.50;99.90
51567;DHT22;37657;53.182;5.638;2023-04-03T10:06:46;8.60;99.90
51567;DHT22;37657;53.182;5.638;2023-04-03T10:09:30;8.60;99.90
51567;DHT22;37657;53.182;5.638;2023-04-03T10:12:09;8.60;99.90
51567;DHT22;37657;53.182;5.638;2023-04-03T10:14:57;8.70;99.90
51567;DHT22;37657;53.182;5.638;2023-04-03T10:22:41;8.80;99.90
51567;DHT22;37657;53.182;5.638;2023-04-03T10:27:59;9.00;99.90
51567;DHT22;37657;53.182;5.638;2023-04-03T10:30:58;8.90;99.90
51567;DHT22;37657;53.182;5.638;2023-04-03T10:39:19;9.00;99.90
51567;DHT22;37657;53.182;5.638;2023-04-03T10:50:49;9.20;99.90
51567;DHT22;37657;53.182;5.638;2023-04-03T10:53:52;9.20;99.90
51567;DHT22;37657;53.182;5.638;2023-04-03T10:56:42;9.20;99.90
51567;DHT22;37657;53.182;5.638;2023-04-03T10:59:31;9.30;99.60
51567;DHT22;37657;53.182;5.638;2023-04-03T11:02:00;9.10;99.90
51567;DHT22;37657;53.182;5.638;2023-04-03T11:04:30;9.20;99.90
51567;DHT22;37657;53.182;5.638;2023-04-03T11:07:10;9.00;99.90
51567;DHT22;37657;53.182;5.638;2023-04-03T11:09:41;9.10;99.90
51567;DHT22;37657;53.182;5.638;2023-04-03T11:15:03;9.10;99.90
51567;DHT22;37657;53.182;5.638;2023-04-03T11:17:43;9.20;99.60
51567;DHT22;37657;53.182;5.638;2023-04-03T11:20:21;9.20;99.60
51567;DHT22;37657;53.182;5.638;2023-04-03T11:22:58;9.10;99.80
51567;DHT22;37657;53.182;5.638;2023-04-03T11:25:29;9.10;99.30
51567;DHT22;37657;53.182;5.638;2023-04-03T11:28:01;9.10;99.40
51567;DHT22;37657;53.182;5.638;2023-04-03T11:38:46;9.10;99.90
51567;DHT22;37657;53.182;5.638;2023-04-03T11:41:13;9.00;99.70
51567;DHT22;37657;53.182;5.638;2023-04-03T11:44:06;9.00;99.90
51567;DHT22;37657;53.182;5.638;2023-04-03T11:47:08;9.10;99.60
51567;DHT22;37657;53.182;5.638;2023-04-03T12:00:56;9.00;98.90
51567;DHT22;37657;53.182;5.638;2023-04-03T12:05:48;9.00;99.60
51567;DHT22;37657;53.182;5.638;2023-04-03T12:08:30;9.10;98.90
51567;DHT22;37657;53.182;5.638;2023-04-03T12:13:41;9.20;98.90
51567;DHT22;37657;53.182;5.638;2023-04-03T12:26:48;9.20;98.00
51567;DHT22;37657;53.182;5.638;2023-04-03T12:34:42;9.20;97.50
51567;DHT22;37657;53.182;5.638;2023-04-03T12:40:08;9.20;98.00
51567;DHT22;37657;53.182;5.638;2023-04-03T12:45:23;9.20;97.90
51567;DHT22;37657;53.182;5.638;2023-04-03T12:47:52;9.10;97.80
51567;DHT22;37657;53.182;5.638;2023-04-03T12:50:28;9.20;98.10
51567;DHT22;37657;53.182;5.638;2023-04-03T12:55:26;9.20;98.10
51567;DHT22;37657;53.182;5.638;2023-04-03T12:57:52;9.20;98.10
51567;DHT22;37657;53.182;5.638;2023-04-03T13:00:30;9.20;98.60
51567;DHT22;37657;53.182;5.638;2023-04-03T13:02:59;9.30;98.80
51567;DHT22;37657;53.182;5.638;2023-04-03T13:05:25;9.40;98.40
51567;DHT22;37657;53.182;5.638;2023-04-03T13:08:01;9.40;98.10
51567;DHT22;37657;53.182;5.638;2023-04-03T13:10:29;9.30;98.30
51567;DHT22;37657;53.182;5.638;2023-04-03T13:13:07;9.30;97.80
51567;DHT22;37657;53.182;5.638;2023-04-03T13:15:42;9.30;98.30
51567;DHT22;37657;53.182;5.638;2023-04-03T13:18:26;9.30;97.50
51567;DHT22;37657;53.182;5.638;2023-04-03T13:20:55;9.30;97.90
51567;DHT22;37657;53.182;5.638;2023-04-03T13:23:22;9.40;98.00
51567;DHT22;37657;53.182;5.638;2023-04-03T13:25:49;9.40;97.40
51567;DHT22;37657;53.182;5.638;2023-04-03T13:28:20;9.30;97.70
51567;DHT22;37657;53.182;5.638;2023-04-03T13:33:32;9.40;97.70
51567;DHT22;37657;53.182;5.638;2023-04-03T13:36:08;9.40;98.20
51567;DHT22;37657;53.182;5.638;2023-04-03T13:38:38;9.40;97.80
51567;DHT22;37657;53.182;5.638;2023-04-03T13:41:21;9.30;97.20
51567;DHT22;37657;53.182;5.638;2023-04-03T13:43:48;9.40;96.70
51567;DHT22;37657;53.182;5.638;2023-04-03T13:48:45;9.40;97.00
51567;DHT22;37657;53.182;5.638;2023-04-03T13:53:50;9.30;97.00
51567;DHT22;37657;53.182;5.638;2023-04-03T13:58:59;9.30;98.20
51567;DHT22;37657;53.182;5.638;2023-04-03T14:04:18;9.40;97.30
51567;DHT22;37657;53.182;5.638;2023-04-03T14:06:44;9.40;97.50
51567;DHT22;37657;53.182;5.638;2023-04-03T14:09:09;9.40;97.90
51567;DHT22;37657;53.182;5.638;2023-04-03T14:11:35;9.40;97.60
51567;DHT22;37657;53.182;5.638;2023-04-03T14:14:06;9.40;97.50
51567;DHT22;37657;53.182;5.638;2023-04-03T14:16:39;9.30;98.20
51567;DHT22;37657;53.182;5.638;2023-04-03T14:19:04;9.40;97.80
51567;DHT22;37657;53.182;5.638;2023-04-03T14:21:30;9.40;98.20
51567;DHT22;37657;53.182;5.638;2023-04-03T14:23:56;9.40;97.90
51567;DHT22;37657;53.182;5.638;2023-04-03T14:26:23;9.40;97.10
51567;DHT22;37657;53.182;5.638;2023-04-03T14:28:51;9.40;98.20
51567;DHT22;37657;53.182;5.638;2023-04-03T14:31:17;9.40;97.90
51567;DHT22;37657;53.182;5.638;2023-04-03T14:33:44;9.40;98.30
51567;DHT22;37657;53.182;5.638;2023-04-03T14:36:30;9.50;98.30
51567;DHT22;37657;53.182;5.638;2023-04-03T14:38:57;9.50;98.10
51567;DHT22;37657;53.182;5.638;2023-04-03T14:41:25;9.40;98.00
51567;DHT22;37657;53.182;5.638;2023-04-03T14:43:52;9.50;97.50
51567;DHT22;37657;53.182;5.638;2023-04-03T14:46:28;9.50;97.20
51567;DHT22;37657;53.182;5.638;2023-04-03T14:48:54;9.40;98.90
51567;DHT22;37657;53.182;5.638;2023-04-03T14:51:21;9.50;98.90
51567;DHT22;37657;53.182;5.638;2023-04-03T14:53:47;9.50;98.70
51567;DHT22;37657;53.182;5.638;2023-04-03T14:56:18;9.60;99.10
51567;DHT22;37657;53.182;5.638;2023-04-03T14:58:47;9.60;98.30
51567;DHT22;37657;53.182;5.638;2023-04-03T15:01:16;9.50;98.10
51567;DHT22;37657;53.182;5.638;2023-04-03T15:03:41;9.50;98.60
51567;DHT22;37657;53.182;5.638;2023-04-03T15:06:12;9.50;98.60
51567;DHT22;37657;53.182;5.638;2023-04-03T15:08:38;9.50;98.40
51567;DHT22;37657;53.182;5.638;2023-04-03T15:11:03;9.50;99.00
51567;DHT22;37657;53.182;5.638;2023-04-03T15:13:29;9.50;98.80
51567;DHT22;37657;53.182;5.638;2023-04-03T15:15:55;9.50;97.90
51567;DHT22;37657;53.182;5.638;2023-04-03T15:18:23;9.40;98.90
51567;DHT22;37657;53.182;5.638;2023-04-03T15:20:50;9.40;98.40
51567;DHT22;37657;53.182;5.638;2023-04-03T15:23:16;9.40;98.90
51567;DHT22;37657;53.182;5.638;2023-04-03T15:25:46;9.40;98.30
51567;DHT22;37657;53.182;5.638;2023-04-03T15:28:30;9.40;98.10
51567;DHT22;37657;53.182;5.638;2023-04-03T15:30:56;9.30;98.40
51567;DHT22;37657;53.182;5.638;2023-04-03T15:33:22;9.30;98.80
51567;DHT22;37657;53.182;5.638;2023-04-03T15:35:48;9.40;99.90
51567;DHT22;37657;53.182;5.638;2023-04-03T15:38:13;9.40;99.90
51567;DHT22;37657;53.182;5.638;2023-04-03T15:40:39;9.20;99.90
51567;DHT22;37657;53.182;5.638;2023-04-03T15:43:06;9.20;99.90
51567;DHT22;37657;53.182;5.638;2023-04-03T15:45:32;9.00;99.90
51567;DHT22;37657;53.182;5.638;2023-04-03T15:47:59;8.90;99.90
51567;DHT22;37657;53.182;5.638;2023-04-03T15:50:25;8.90;99.90
51567;DHT22;37657;53.182;5.638;2023-04-03T15:52:52;8.80;99.90
51567;DHT22;37657;53.182;5.638;2023-04-03T15:55:24;8.70;99.90
51567;DHT22;37657;53.182;5.638;2023-04-03T15:57:52;8.70;99.90
51567;DHT22;37657;53.182;5.638;2023-04-03T16:00:18;8.70;99.90
51567;DHT22;37657;53.182;5.638;2023-04-03T16:02:45;8.70;99.90
51567;DHT22;37657;53.182;5.638;2023-04-03T16:05:13;8.70;99.90
51567;DHT22;37657;53.182;5.638;2023-04-03T16:07:41;8.70;99.90
51567;DHT22;37657;53.182;5.638;2023-04-03T16:10:07;8.70;99.90
51567;DHT22;37657;53.182;5.638;2023-04-03T16:12:33;8.70;99.90
51567;DHT22;37657;53.182;5.638;2023-04-03T16:14:59;8.70;99.90
51567;DHT22;37657;53.182;5.638;2023-04-03T16:17:26;8.60;99.90
51567;DHT22;37657;53.182;5.638;2023-04-03T16:19:53;8.60;99.90
51567;DHT22;37657;53.182;5.638;2023-04-03T16:22:19;8.60;99.90
51567;DHT22;37657;53.182;5.638;2023-04-03T16:24:45;8.50;99.90
51567;DHT22;37657;53.182;5.638;2023-04-03T16:27:10;8.50;99.90
51567;DHT22;37657;53.182;5.638;2023-04-03T16:29:36;8.50;99.90
51567;DHT22;37657;53.182;5.638;2023-04-03T16:32:02;8.40;99.90
51567;DHT22;37657;53.182;5.638;2023-04-03T16:34:27;8.40;99.90
51567;DHT22;37657;53.182;5.638;2023-04-03T16:36:56;8.40;99.90
51567;DHT22;37657;53.182;5.638;2023-04-03T16:39:21;8.30;99.90
51567;DHT22;37657;53.182;5.638;2023-04-03T16:41:47;8.20;99.90
51567;DHT22;37657;53.182;5.638;2023-04-03T16:44:12;8.20;99.90
51567;DHT22;37657;53.182;5.638;2023-04-03T16:46:38;8.10;99.90
51567;DHT22;37657;53.182;5.638;2023-04-03T16:49:04;8.10;99.90
51567;DHT22;37657;53.182;5.638;2023-04-03T16:51:30;8.10;99.90
51567;DHT22;37657;53.182;5.638;2023-04-03T16:53:57;8.10;99.90
51567;DHT22;37657;53.182;5.638;2023-04-03T16:56:22;8.00;99.90
51567;DHT22;37657;53.182;5.638;2023-04-03T16:58:48;8.00;99.90
51567;DHT22;37657;53.182;5.638;2023-04-03T17:01:18;7.90;99.90
51567;DHT22;37657;53.182;5.638;2023-04-03T17:03:44;7.90;99.90
51567;DHT22;37657;53.182;5.638;2023-04-03T17:06:12;7.80;99.90
51567;DHT22;37657;53.182;5.638;2023-04-03T17:08:46;7.70;99.90
51567;DHT22;37657;53.182;5.638;2023-04-03T17:11:12;7.60;99.90
51567;DHT22;37657;53.182;5.638;2023-04-03T17:13:37;7.60;99.90
51567;DHT22;37657;53.182;5.638;2023-04-03T17:16:06;7.60;99.90
51567;DHT22;37657;53.182;5.638;2023-04-03T17:18:33;7.50;99.90
51567;DHT22;37657;53.182;5.638;2023-04-03T17:20:59;7.40;99.90
51567;DHT22;37657;53.182;5.638;2023-04-03T17:23:26;7.30;99.90
51567;DHT22;37657;53.182;5.638;2023-04-03T17:25:54;7.20;99.90
51567;DHT22;37657;53.182;5.638;2023-04-03T17:28:23;7.20;99.90
51567;DHT22;37657;53.182;5.638;2023-04-03T17:30:54;7.20;99.90
51567;DHT22;37657;53.182;5.638;2023-04-03T17:33:20;7.20;99.90
51567;DHT22;37657;53.182;5.638;2023-04-03T17:35:45;7.10;99.90
51567;DHT22;37657;53.182;5.638;2023-04-03T17:38:11;7.10;99.90